Time;durP1;ratioP1;P1;durP2;ratioP2;P2;SDS_P1;SDS_P2;PMS_P1;PMS_P2;Temp;Humidity;BMP_temperature;BMP_pressure;BME280_temperature;BME280_humidity;BME280_pressure;Samples;Min_cycle;Max_cycle;Signal;HPM_P1;HPM_P2
2021/11/01 00:01:06;;;;;;;24.67;16.13;;;9.10;99.90;;;;;;5077541;28;20448;-73
2021/11/01 00:03:33;;;;;;;24.85;16.70;;;9.10;99.90;;;;;;5077186;28;20417;-69
2021/11/01 00:06:00;;;;;;;24.38;16.48;;;9.10;99.90;;;;;;5077378;28;20243;-71
2021/11/01 00:08:29;;;;;;;25.52;17.30;;;9.10;99.90;;;;;;5077424;28;20180;-71
2021/11/01 00:10:55;;;;;;;25.70;15.80;;;9.10;99.90;;;;;;5077268;28;20703;-70
2021/11/01 00:13:21;;;;;;;27.98;16.25;;;9.10;99.90;;;;;;5077176;28;20252;-68
2021/11/01 00:15:47;;;;;;;30.20;16.80;;;9.10;99.90;;;;;;5077086;28;20283;-69
2021/11/01 00:18:17;;;;;;;26.23;16.77;;;9.10;99.90;;;;;;5077291;28;20416;-71
2021/11/01 00:20:55;;;;;;;24.20;16.25;;;9.00;99.90;;;;;;5077189;28;20460;-71
2021/11/01 00:23:33;;;;;;;25.77;16.88;;;9.00;99.90;;;;;;5077088;28;20176;-71
2021/11/01 00:26:10;;;;;;;28.35;18.30;;;9.00;99.90;;;;;;5093750;28;20255;-71
2021/11/01 00:28:36;;;;;;;26.73;17.90;;;8.90;99.90;;;;;;5076605;28;20196;-67
2021/11/01 00:31:03;;;;;;;28.67;17.33;;;8.90;99.90;;;;;;5077111;28;20249;-69
2021/11/01 00:33:32;;;;;;;26.23;15.80;;;9.00;99.90;;;;;;5076827;28;20212;-72
2021/11/01 00:35:59;;;;;;;25.30;17.15;;;8.90;99.90;;;;;;5076805;28;20212;-71
2021/11/01 00:38:25;;;;;;;26.15;16.80;;;8.90;99.90;;;;;;5076947;28;20178;-69
2021/11/01 00:40:51;;;;;;;27.75;17.65;;;8.90;99.90;;;;;;5076557;28;20232;-69
2021/11/01 00:43:18;;;;;;;26.17;17.10;;;8.90;99.90;;;;;;5077040;28;20172;-70
2021/11/01 00:45:45;;;;;;;30.10;18.60;;;8.90;99.90;;;;;;5076661;28;21014;-68
2021/11/01 00:48:17;;;;;;;27.55;17.13;;;8.90;99.90;;;;;;5076666;28;20180;-70
2021/11/01 00:50:49;;;;;;;31.33;16.50;;;8.80;99.90;;;;;;5076586;28;20215;-70
2021/11/01 00:53:18;;;;;;;26.83;16.58;;;8.80;99.90;;;;;;5075925;28;20212;-71
2021/11/01 00:55:51;;;;;;;26.85;16.85;;;8.70;99.90;;;;;;5076177;28;20228;-68
2021/11/01 00:58:33;;;;;;;25.50;17.08;;;8.70;99.90;;;;;;5076624;28;20633;-72
2021/11/01 01:01:00;;;;;;;28.38;18.13;;;8.60;99.90;;;;;;5076187;28;20237;-71
2021/11/01 01:03:27;;;;;;;28.00;17.85;;;8.50;99.90;;;;;;5076537;28;20184;-68
2021/11/01 01:05:58;;;;;;;27.55;17.63;;;8.50;99.90;;;;;;5094822;28;20288;-69
2021/11/01 01:08:24;;;;;;;27.38;18.42;;;8.40;99.90;;;;;;5076120;28;20172;-70
2021/11/01 01:10:59;;;;;;;28.02;19.15;;;8.40;99.90;;;;;;5075994;28;20211;-72
2021/11/01 01:13:29;;;;;;;25.20;16.70;;;8.30;99.90;;;;;;5076774;28;20629;-69
2021/11/01 01:16:05;;;;;;;30.35;20.55;;;8.30;99.90;;;;;;5076102;28;20234;-70
2021/11/01 01:18:35;;;;;;;31.23;18.85;;;8.20;99.90;;;;;;5076355;28;20198;-70
2021/11/01 01:22:10;;;;;;;28.33;16.92;;;8.10;99.90;;;;;;5076232;28;20215;-69
2021/11/01 01:23:56;;;;;;;24.23;17.40;;;8.00;99.90;;;;;;5094395;28;20635;-71
2021/11/01 01:26:30;;;;;;;30.77;18.25;;;7.90;99.90;;;;;;5075864;28;20267;-71
2021/11/01 01:28:57;;;;;;;30.65;18.98;;;7.80;99.90;;;;;;5075905;28;20630;-68
2021/11/01 01:31:24;;;;;;;36.70;20.40;;;7.80;99.90;;;;;;5076295;28;20184;-69
2021/11/01 01:33:51;;;;;;;27.48;18.30;;;7.70;99.90;;;;;;5076153;28;20212;-69
2021/11/01 01:36:17;;;;;;;27.90;17.25;;;7.70;99.90;;;;;;5075689;28;20204;-69
2021/11/01 01:38:50;;;;;;;32.25;19.63;;;7.60;99.90;;;;;;5075921;28;20660;-71
2021/11/01 01:41:17;;;;;;;32.15;18.10;;;7.50;99.90;;;;;;5075558;28;20668;-68
2021/11/01 01:43:53;;;;;;;30.52;18.08;;;7.50;99.90;;;;;;5075953;28;20176;-71
2021/11/01 01:46:23;;;;;;;27.92;17.50;;;7.40;99.90;;;;;;5075637;28;20208;-72
2021/11/01 01:48:58;;;;;;;27.65;17.75;;;7.40;99.90;;;;;;5075745;28;20184;-71
2021/11/01 01:51:27;;;;;;;24.55;18.63;;;7.30;99.90;;;;;;5076001;28;20655;-68
2021/11/01 01:53:55;;;;;;;33.38;19.65;;;7.30;99.90;;;;;;5075648;28;20218;-68
2021/11/01 01:56:27;;;;;;;27.88;17.65;;;7.30;99.90;;;;;;5075619;28;20223;-72
2021/11/01 01:59:01;;;;;;;26.80;17.60;;;7.30;99.90;;;;;;5075646;28;20609;-67
2021/11/01 02:01:33;;;;;;;26.70;18.17;;;7.30;99.90;;;;;;5075797;28;20637;-71
2021/11/01 02:04:18;;;;;;;25.35;17.27;;;7.30;99.90;;;;;;5075603;28;20637;-72
2021/11/01 02:06:51;;;;;;;33.67;18.25;;;7.30;99.90;;;;;;5080050;28;20263;-71
2021/11/01 02:09:24;;;;;;;27.90;17.42;;;7.40;99.90;;;;;;5079505;28;20203;-69
2021/11/01 02:12:04;;;;;;;25.00;17.02;;;7.40;99.90;;;;;;5080005;28;20208;-71
2021/11/01 02:14:44;;;;;;;25.80;16.65;;;7.40;99.90;;;;;;5079376;28;20216;-71
2021/11/01 02:17:16;;;;;;;29.48;18.20;;;7.40;99.90;;;;;;5096544;28;20642;-68
2021/11/01 02:19:47;;;;;;;26.23;17.33;;;7.40;99.90;;;;;;5079484;28;20289;-71
2021/11/01 02:22:51;;;;;;;27.77;17.23;;;7.40;99.90;;;;;;5079551;28;20180;-70
2021/11/01 02:25:41;;;;;;;29.90;18.67;;;7.40;99.90;;;;;;5078917;28;20287;-71
2021/11/01 02:28:20;;;;;;;28.65;19.00;;;7.40;99.90;;;;;;5056010;28;20549;-69
2021/11/01 02:30:52;;;;;;;33.10;17.92;;;7.30;99.90;;;;;;5055862;28;20206;-71
2021/11/01 02:33:26;;;;;;;25.02;16.95;;;7.30;99.90;;;;;;5055259;28;20325;-71
2021/11/01 02:35:56;;;;;;;30.92;17.65;;;7.20;99.90;;;;;;5055981;28;20734;-70
2021/11/01 02:38:25;;;;;;;26.73;16.08;;;7.20;99.90;;;;;;5056076;28;20188;-69
2021/11/01 02:40:53;;;;;;;26.75;17.48;;;7.20;99.90;;;;;;5055571;28;20198;-69
2021/11/01 02:43:21;;;;;;;28.85;17.25;;;7.10;99.90;;;;;;5055971;28;20211;-73
2021/11/01 02:45:59;;;;;;;25.95;16.75;;;7.10;99.90;;;;;;5054894;28;20226;-73
2021/11/01 02:48:26;;;;;;;28.90;17.27;;;7.10;99.90;;;;;;5055645;28;20187;-70
2021/11/01 02:50:54;;;;;;;25.27;17.02;;;7.00;99.90;;;;;;5055207;28;20579;-71
2021/11/01 02:53:21;;;;;;;29.42;18.48;;;7.00;99.90;;;;;;5055280;28;20217;-73
2021/11/01 02:55:57;;;;;;;28.48;18.30;;;7.00;99.90;;;;;;5055375;28;20285;-70
2021/11/01 02:58:28;;;;;;;23.70;16.63;;;7.00;99.90;;;;;;5055511;28;20312;-73
2021/11/01 03:00:58;;;;;;;27.77;16.95;;;7.00;99.90;;;;;;5054695;28;20300;-72
2021/11/01 03:03:24;;;;;;;33.47;19.27;;;6.90;99.90;;;;;;5055228;28;20537;-71
2021/11/01 03:05:54;;;;;;;26.03;17.30;;;6.80;99.90;;;;;;5055369;28;20194;-73
2021/11/01 03:08:23;;;;;;;28.27;16.90;;;6.80;99.90;;;;;;5055277;28;20389;-73
2021/11/01 03:10:52;;;;;;;32.08;17.73;;;6.70;99.90;;;;;;5055050;28;20209;-71
2021/11/01 03:13:19;;;;;;;30.55;18.15;;;6.60;99.90;;;;;;5055330;28;20225;-71
2021/11/01 03:15:48;;;;;;;29.20;18.55;;;6.60;99.90;;;;;;5055068;28;20206;-73
2021/11/01 03:18:15;;;;;;;29.85;17.77;;;6.60;99.90;;;;;;5054216;28;20232;-71
2021/11/01 03:20:45;;;;;;;21.30;15.32;;;6.50;99.90;;;;;;5055182;28;20222;-72
2021/11/01 03:23:24;;;;;;;29.75;16.90;;;6.50;99.90;;;;;;5055014;28;20182;-73
2021/11/01 03:26:18;;;;;;;25.50;16.15;;;6.40;99.90;;;;;;5054985;28;20237;-73
2021/11/01 03:28:50;;;;;;;25.50;16.52;;;6.40;99.90;;;;;;5052052;28;20273;-74
2021/11/01 03:31:24;;;;;;;24.27;16.20;;;6.30;99.90;;;;;;5071447;28;20205;-73
2021/11/01 03:33:52;;;;;;;31.65;17.67;;;6.30;99.90;;;;;;5054569;28;20216;-70
2021/11/01 03:36:19;;;;;;;27.20;16.73;;;6.30;99.90;;;;;;5071096;28;20613;-72
2021/11/01 03:38:49;;;;;;;30.60;17.02;;;6.20;99.90;;;;;;5071190;28;20542;-70
2021/11/01 03:41:17;;;;;;;28.02;16.90;;;6.20;99.90;;;;;;5071201;28;20213;-72
2021/11/01 03:43:58;;;;;;;31.27;18.45;;;6.20;99.90;;;;;;5055112;28;20232;-71
2021/11/01 03:46:49;;;;;;;27.42;16.67;;;6.20;99.90;;;;;;5071094;28;20196;-71
2021/11/01 03:49:19;;;;;;;35.00;18.10;;;6.20;99.90;;;;;;5055793;28;20269;-73
2021/11/01 03:51:50;;;;;;;30.02;19.13;;;6.20;99.90;;;;;;5070943;28;20190;-71
2021/11/01 03:54:24;;;;;;;27.80;18.30;;;6.20;99.90;;;;;;5070951;28;20286;-73
2021/11/01 03:56:54;;;;;;;26.85;16.60;;;6.10;99.90;;;;;;5070922;28;20181;-73
2021/11/01 03:59:24;;;;;;;24.38;16.23;;;6.10;99.90;;;;;;5070877;28;20201;-73
2021/11/01 04:01:50;;;;;;;25.65;17.95;;;6.10;99.90;;;;;;5071218;28;20658;-71
2021/11/01 04:04:16;;;;;;;25.73;16.77;;;6.00;99.90;;;;;;5070842;28;20193;-71
2021/11/01 04:06:43;;;;;;;26.08;17.50;;;6.00;99.90;;;;;;5070672;28;20944;-72
2021/11/01 04:09:11;;;;;;;25.85;17.20;;;5.90;99.90;;;;;;5070465;28;20551;-71
2021/11/01 04:11:50;;;;;;;30.33;18.13;;;5.90;99.90;;;;;;5070484;28;20209;-73
2021/11/01 04:14:22;;;;;;;29.15;17.92;;;5.80;99.90;;;;;;5070458;28;20241;-73
2021/11/01 04:16:58;;;;;;;25.67;17.58;;;5.80;99.90;;;;;;5070499;28;20193;-70
2021/11/01 04:21:58;;;;;;;36.00;20.70;;;5.70;99.90;;;;;;5055427;28;20615;-73
2021/11/01 04:24:30;;;;;;;32.85;18.85;;;5.70;99.90;;;;;;5070304;28;20194;-73
2021/11/01 04:26:56;;;;;;;29.85;19.02;;;5.70;99.90;;;;;;5070341;28;20229;-71
2021/11/01 04:29:27;;;;;;;31.13;18.73;;;5.70;99.90;;;;;;5070073;28;20247;-72
2021/11/01 04:32:08;;;;;;;34.92;20.13;;;5.70;99.90;;;;;;5070247;28;20264;-73
2021/11/01 04:34:39;;;;;;;32.17;19.17;;;5.70;99.90;;;;;;5069441;28;20492;-72
2021/11/01 04:37:08;;;;;;;32.55;18.90;;;5.70;99.90;;;;;;5069932;28;20178;-73
2021/11/01 04:39:57;;;;;;;27.35;18.98;;;5.70;99.90;;;;;;5053258;28;20194;-71
2021/11/01 04:52:54;;;;;;;30.95;19.33;;;5.70;99.90;;;;;;5054667;28;20222;-73
2021/11/01 04:53:24;;;;;;;29.00;19.63;;;5.70;99.90;;;;;;5054731;28;20748;-73
2021/11/01 04:55:53;;;;;;;29.73;17.63;;;5.60;99.90;;;;;;5069771;28;20197;-72
2021/11/01 04:58:29;;;;;;;35.05;20.70;;;5.50;99.90;;;;;;5069716;28;20193;-73
2021/11/01 05:01:04;;;;;;;31.60;18.20;;;5.50;99.90;;;;;;5069325;28;20572;-73
2021/11/01 05:03:40;;;;;;;34.55;18.10;;;5.50;99.90;;;;;;5054389;28;20157;-73
2021/11/01 05:06:07;;;;;;;33.65;19.70;;;5.40;99.90;;;;;;5069712;28;20674;-71
2021/11/01 05:08:41;;;;;;;36.60;22.02;;;5.40;99.90;;;;;;5069588;28;20174;-73
2021/11/01 05:13:56;;;;;;;35.05;19.35;;;5.40;99.90;;;;;;5054208;28;20308;-71
2021/11/01 05:21:46;;;;;;;32.37;19.30;;;5.50;99.90;;;;;;5054535;28;20634;-72
2021/11/01 05:24:21;;;;;;;29.50;19.17;;;5.50;99.90;;;;;;5069022;28;20488;-71
2021/11/01 05:27:09;;;;;;;34.58;20.60;;;5.50;99.90;;;;;;5064305;28;20228;-73
2021/11/01 05:29:41;;;;;;;31.20;20.58;;;5.50;99.90;;;;;;5073059;28;20220;-70
2021/11/01 05:32:12;;;;;;;33.83;19.20;;;5.50;99.90;;;;;;5072803;28;20235;-70
2021/11/01 05:34:39;;;;;;;34.85;19.30;;;5.50;99.90;;;;;;5072575;28;20326;-72
2021/11/01 05:37:48;;;;;;;29.52;18.95;;;5.40;99.90;;;;;;5072527;28;20594;-73
2021/11/01 05:40:16;;;;;;;29.50;18.60;;;5.50;99.90;;;;;;5071904;28;20204;-70
2021/11/01 05:42:47;;;;;;;31.60;20.50;;;5.50;99.90;;;;;;5072175;28;20641;-72
2021/11/01 05:45:17;;;;;;;31.75;19.35;;;5.40;99.90;;;;;;5072464;28;20292;-72
2021/11/01 05:47:46;;;;;;;32.75;21.27;;;5.50;99.90;;;;;;5072514;28;20660;-72
2021/11/01 05:50:14;;;;;;;35.28;21.42;;;5.50;99.90;;;;;;5072453;28;20288;-73
2021/11/01 05:52:45;;;;;;;31.40;19.20;;;5.50;99.90;;;;;;5072390;28;20212;-73
2021/11/01 05:55:23;;;;;;;31.88;20.52;;;5.50;99.90;;;;;;5072267;28;20209;-73
2021/11/01 06:00:54;;;;;;;30.42;20.52;;;5.60;99.90;;;;;;5073702;28;20201;-74
2021/11/01 06:03:31;;;;;;;30.67;20.08;;;5.60;99.90;;;;;;5072483;28;20599;-69
2021/11/01 06:06:13;;;;;;;32.22;19.92;;;5.60;99.90;;;;;;5072223;28;20205;-72
2021/11/01 06:09:32;;;;;;;34.25;20.40;;;5.70;99.90;;;;;;5073659;28;20172;-73
2021/11/01 06:14:17;;;;;;;31.95;19.95;;;5.70;99.90;;;;;;5073700;28;20278;-72
2021/11/01 06:16:44;;;;;;;30.58;20.35;;;5.80;99.90;;;;;;5072304;28;20235;-72
2021/11/01 06:19:14;;;;;;;36.90;22.13;;;5.80;99.90;;;;;;5072033;28;20192;-73
2021/11/01 06:21:48;;;;;;;33.53;21.05;;;5.90;99.90;;;;;;5071758;28;20271;-73
2021/11/01 06:25:05;;;;;;;35.15;22.10;;;5.90;99.90;;;;;;5072310;28;20295;-71
2021/11/01 06:27:03;;;;;;;35.28;19.58;;;6.00;99.90;;;;;;5076331;28;20700;-73
2021/11/01 06:29:34;;;;;;;34.95;20.67;;;6.10;99.90;;;;;;5075252;28;20309;-71
2021/11/01 06:40:36;;;;;;;34.90;21.50;;;6.40;99.90;;;;;;5093851;28;20262;-73
2021/11/01 06:56:45;;;;;;;33.95;21.70;;;6.90;99.90;;;;;;5096960;28;20213;-72
2021/11/01 07:15:54;;;;;;;29.83;18.17;;;8.50;99.90;;;;;;5064533;28;20781;-74
2021/11/01 07:18:30;;;;;;;27.80;19.30;;;8.70;99.90;;;;;;5078461;28;20241;-70
2021/11/01 08:22:44;;;;;;;19.27;15.67;;;20.10;97.10;;;;;;5095312;28;20769;-71
2021/11/01 09:03:51;;;;;;;23.87;14.93;;;14.70;99.90;;;;;;5107433;28;20441;-74
2021/11/01 09:24:45;;;;;;;17.53;15.13;;;14.90;99.90;;;;;;5074481;28;20537;-74
2021/11/01 09:27:19;;;;;;;19.50;15.23;;;15.10;99.90;;;;;;5072961;28;20906;-74
2021/11/01 09:41:19;;;;;;;23.90;16.27;;;15.30;99.90;;;;;;5073978;28;20440;-72
2021/11/01 09:43:52;;;;;;;21.53;15.73;;;15.30;99.90;;;;;;5072450;28;20421;-72
2021/11/01 09:46:19;;;;;;;22.83;16.10;;;15.20;99.90;;;;;;5071966;28;20457;-70
2021/11/01 09:48:46;;;;;;;24.40;16.43;;;15.10;99.90;;;;;;5070280;28;20429;-70
2021/11/01 09:51:12;;;;;;;22.57;18.30;;;15.20;99.90;;;;;;5070012;28;20949;-70
2021/11/01 09:53:45;;;;;;;21.03;15.80;;;15.10;99.90;;;;;;5072070;28;20472;-74
2021/11/01 09:56:30;;;;;;;21.50;15.37;;;15.10;99.90;;;;;;5072095;28;20442;-72
2021/11/01 09:59:12;;;;;;;26.90;18.70;;;15.20;99.90;;;;;;5072292;28;20438;-70
2021/11/01 10:01:43;;;;;;;21.23;16.20;;;15.20;99.90;;;;;;5071907;28;20547;-74
2021/11/01 10:04:17;;;;;;;20.53;15.50;;;15.10;99.90;;;;;;5072068;28;20425;-74
2021/11/01 10:06:45;;;;;;;23.97;16.40;;;15.10;99.90;;;;;;5072279;28;20428;-72
2021/11/01 10:09:16;;;;;;;23.40;15.40;;;15.10;99.90;;;;;;5071606;28;20483;-74
2021/11/01 10:11:47;;;;;;;22.50;16.13;;;15.10;99.90;;;;;;5089208;28;20461;-74
2021/11/01 10:14:14;;;;;;;27.97;18.63;;;15.10;99.90;;;;;;5071964;28;20481;-72
2021/11/01 10:19:45;;;;;;;22.87;16.27;;;15.10;99.90;;;;;;5073296;28;20468;-74
2021/11/01 10:22:24;;;;;;;23.20;18.93;;;15.10;99.90;;;;;;5070575;28;20783;-71
2021/11/01 10:24:54;;;;;;;24.03;18.07;;;15.10;99.90;;;;;;5070625;28;20460;-72
2021/11/01 10:27:36;;;;;;;23.83;17.67;;;15.10;99.90;;;;;;5074373;28;20867;-72
2021/11/01 10:30:08;;;;;;;23.30;17.20;;;15.10;99.90;;;;;;5075904;28;20433;-72
2021/11/01 10:32:44;;;;;;;25.90;17.83;;;15.10;99.90;;;;;;5075728;28;20449;-74
2021/11/01 10:35:31;;;;;;;29.20;19.87;;;15.20;99.90;;;;;;5075797;28;20614;-72
2021/11/01 10:41:25;;;;;;;29.17;19.97;;;15.20;99.90;;;;;;5054871;28;21002;-72
2021/11/01 10:44:03;;;;;;;23.60;17.43;;;15.20;99.90;;;;;;5069372;28;20441;-72
2021/11/01 11:30:30;;;;;;;26.27;20.10;;;15.80;99.90;;;;;;5076618;28;20445;-74
2021/11/01 11:48:19;;;;;;;27.03;17.80;;;16.00;99.90;;;;;;5076118;28;20444;-72
2021/11/01 11:50:54;;;;;;;23.60;16.00;;;16.00;99.90;;;;;;5074178;28;20450;-74
2021/11/01 11:53:26;;;;;;;27.40;19.60;;;16.10;99.90;;;;;;5073705;28;20469;-71
2021/11/01 11:56:11;;;;;;;23.63;17.20;;;16.10;99.90;;;;;;5074199;28;20442;-74
2021/11/01 11:58:48;;;;;;;24.40;18.17;;;16.10;99.90;;;;;;5074264;28;20446;-72
2021/11/01 12:01:34;;;;;;;22.03;17.23;;;16.20;99.90;;;;;;5073653;28;20988;-72
2021/11/01 12:04:02;;;;;;;23.57;16.80;;;16.20;99.90;;;;;;5074053;28;20430;-72
2021/11/01 12:06:53;;;;;;;21.43;17.10;;;16.40;99.90;;;;;;5074242;28;20421;-72
2021/11/01 12:09:25;;;;;;;21.67;17.20;;;16.40;99.90;;;;;;5073914;28;20452;-72
2021/11/01 12:17:18;;;;;;;27.13;18.57;;;16.50;99.90;;;;;;5075242;28;20433;-74
2021/11/01 12:19:51;;;;;;;24.50;16.50;;;16.50;99.90;;;;;;5074034;28;20441;-74
2021/11/01 12:22:29;;;;;;;24.50;18.03;;;16.60;99.90;;;;;;5091380;28;20449;-74
2021/11/01 12:24:56;;;;;;;23.20;16.77;;;16.60;99.90;;;;;;5073466;28;20446;-71
2021/11/01 12:27:22;;;;;;;23.40;16.43;;;16.70;99.90;;;;;;5073711;28;20414;-70
2021/11/01 12:29:52;;;;;;;21.30;16.60;;;16.70;99.90;;;;;;5073694;28;20457;-75
2021/11/01 12:32:21;;;;;;;21.07;17.60;;;16.80;99.90;;;;;;5090423;28;20437;-75
2021/11/01 12:37:28;;;;;;;22.57;16.30;;;16.90;99.90;;;;;;5074873;28;20402;-71
2021/11/01 12:40:10;;;;;;;22.10;16.47;;;16.90;99.90;;;;;;5073310;28;20453;-71
2021/11/01 12:59:01;;;;;;;22.60;16.10;;;17.10;99.90;;;;;;5074640;28;20416;-74
2021/11/01 13:01:29;;;;;;;26.90;16.77;;;17.20;99.90;;;;;;5072991;28;20915;-71
2021/11/01 13:09:41;;;;;;;21.37;17.50;;;17.30;99.90;;;;;;4992726;28;20650;-72
2021/11/01 13:12:36;;;;;;;22.80;17.97;;;17.30;99.90;;;;;;5077302;28;21029;-74
2021/11/01 13:20:22;;;;;;;18.57;15.00;;;17.40;99.90;;;;;;5074044;28;20450;-74
2021/11/01 13:22:59;;;;;;;19.20;15.60;;;17.50;99.90;;;;;;5072841;28;20422;-74
2021/11/01 13:25:35;;;;;;;21.30;16.10;;;17.60;99.90;;;;;;5073131;28;20441;-73
2021/11/01 13:36:39;;;;;;;25.97;16.27;;;17.80;99.90;;;;;;5074446;28;20405;-75
2021/11/01 13:39:09;;;;;;;25.50;15.77;;;17.80;99.80;;;;;;5074191;28;20458;-72
2021/11/01 13:41:48;;;;;;;19.03;15.53;;;17.80;99.40;;;;;;5073404;28;20456;-74
2021/11/01 13:44:20;;;;;;;26.20;17.60;;;17.80;99.60;;;;;;5072578;28;20464;-74
2021/11/01 13:46:57;;;;;;;24.10;17.97;;;17.80;99.50;;;;;;5072544;28;20417;-75
2021/11/01 13:49:31;;;;;;;24.67;16.83;;;17.80;99.50;;;;;;5072833;28;20803;-74
2021/11/01 13:55:04;;;;;;;22.33;16.43;;;17.80;99.60;;;;;;5074233;28;20472;-72
2021/11/01 13:57:38;;;;;;;20.93;16.17;;;17.90;99.80;;;;;;5073250;28;20914;-73
2021/11/01 14:11:43;;;;;;;18.93;16.93;;;17.80;98.70;;;;;;5076358;28;20475;-71
2021/11/01 14:17:28;;;;;;;18.30;15.47;;;17.80;98.80;;;;;;5078217;28;20405;-71
2021/11/01 14:20:03;;;;;;;20.73;16.50;;;17.80;98.70;;;;;;5075284;28;20456;-73
2021/11/01 14:34:11;;;;;;;25.20;18.17;;;18.00;98.60;;;;;;5077912;28;20470;-70
2021/11/01 15:15:40;;;;;;;80.73;49.70;;;17.40;99.50;;;;;;5076410;28;20445;-70
2021/11/01 15:18:30;;;;;;;60.23;37.47;;;17.30;99.70;;;;;;5074990;28;20457;-73
2021/11/01 15:21:10;;;;;;;47.00;30.60;;;17.20;99.90;;;;;;5074985;28;20450;-70
2021/11/01 15:23:56;;;;;;;30.03;22.73;;;17.10;99.80;;;;;;5075305;28;20972;-73
2021/11/01 16:18:12;;;;;;;104.27;57.57;;;15.40;99.90;;;;;;5073640;28;20977;-70
2021/11/01 16:20:39;;;;;;;64.20;39.30;;;15.30;99.90;;;;;;5071696;28;20458;-70
2021/11/01 16:26:10;;;;;;;67.03;41.53;;;15.20;99.90;;;;;;5073114;28;20479;-73
2021/11/01 16:28:45;;;;;;;74.63;43.33;;;15.20;99.90;;;;;;5071519;28;20437;-70
2021/11/01 16:31:25;;;;;;;75.30;45.30;;;15.20;99.90;;;;;;5071725;28;20544;-72
2021/11/01 16:34:39;;;;;;;65.40;41.90;;;15.10;99.90;;;;;;5073525;28;20477;-73
2021/11/01 16:36:48;;;;;;;59.17;38.20;;;15.00;99.90;;;;;;5057186;28;20414;-70
2021/11/01 16:39:18;;;;;;;59.70;41.07;;;14.90;99.90;;;;;;5074975;28;20468;-71
2021/11/01 16:41:46;;;;;;;64.80;41.80;;;14.80;99.90;;;;;;5073244;28;20953;-69
2021/11/01 16:44:26;;;;;;;60.20;42.17;;;14.80;99.90;;;;;;5073124;28;20404;-70
2021/11/01 16:46:53;;;;;;;78.00;46.53;;;14.70;99.90;;;;;;5073324;28;20432;-70
2021/11/01 16:49:22;;;;;;;86.90;51.20;;;14.60;99.90;;;;;;5072442;28;20445;-70
2021/11/01 16:51:51;;;;;;;94.50;50.43;;;14.60;99.90;;;;;;5074814;28;20475;-69
2021/11/01 16:54:29;;;;;;;119.23;62.20;;;14.60;99.90;;;;;;5073057;28;20480;-72
2021/11/01 16:59:46;;;;;;;75.10;45.83;;;14.50;99.90;;;;;;5074785;28;20483;-71
2021/11/01 17:05:14;;;;;;;72.20;45.23;;;14.40;99.90;;;;;;5074753;28;20790;-72
2021/11/01 17:07:57;;;;;;;62.60;38.70;;;14.40;99.90;;;;;;5090155;28;20429;-70
2021/11/01 17:11:04;;;;;;;58.10;39.33;;;14.30;99.90;;;;;;5072608;28;20475;-72
2021/11/01 17:21:50;;;;;;;55.80;36.43;;;14.20;99.90;;;;;;5074396;28;20389;-70
2021/11/01 17:24:30;;;;;;;57.57;37.53;;;14.10;99.90;;;;;;5073804;28;20449;-71
2021/11/01 18:51:35;;;;;;;39.63;27.60;;;13.20;99.90;;;;;;5077289;28;20404;-73
2021/11/01 18:54:20;;;;;;;47.07;29.10;;;13.20;99.90;;;;;;5075193;28;20836;-72
2021/11/01 18:57:04;;;;;;;38.83;28.50;;;13.10;99.90;;;;;;5075413;28;20417;-73
2021/11/01 18:59:35;;;;;;;41.70;29.57;;;13.10;99.90;;;;;;5075495;28;20526;-70
2021/11/01 19:05:00;;;;;;;47.10;31.67;;;13.00;99.90;;;;;;5076929;28;20437;-73
2021/11/01 19:07:40;;;;;;;44.00;31.40;;;13.00;99.90;;;;;;5092152;28;20974;-70
2021/11/01 20:03:35;;;;;;;41.83;29.55;;;12.20;99.90;;;;;;5075811;28;20184;-72
2021/11/01 20:06:21;;;;;;;44.47;29.88;;;12.20;99.90;;;;;;5074196;28;20213;-70
2021/11/01 20:11:46;;;;;;;44.58;30.45;;;12.20;99.90;;;;;;5075448;28;20275;-70
2021/11/01 21:24:50;;;;;;;43.63;27.45;;;11.00;99.90;;;;;;5074250;28;20275;-72
2021/11/01 21:27:21;;;;;;;37.40;25.83;;;11.00;99.90;;;;;;5072973;28;20210;-69
2021/11/01 21:29:47;;;;;;;38.25;25.20;;;10.90;99.90;;;;;;5072857;28;20228;-70
2021/11/01 21:32:23;;;;;;;37.95;24.33;;;10.90;99.90;;;;;;5072783;28;20181;-72
2021/11/01 21:35:07;;;;;;;37.17;24.40;;;10.80;99.90;;;;;;5072374;28;20220;-71
2021/11/01 21:37:33;;;;;;;33.08;23.45;;;10.80;99.90;;;;;;5072617;28;20181;-72
2021/11/01 21:40:10;;;;;;;37.17;25.80;;;10.80;99.90;;;;;;5071023;28;20258;-72
2021/11/01 21:42:39;;;;;;;37.63;24.02;;;10.80;99.90;;;;;;5072492;28;20177;-69
2021/11/01 21:45:07;;;;;;;38.38;23.88;;;10.80;99.90;;;;;;5072154;28;20200;-72
2021/11/01 21:47:35;;;;;;;34.90;24.00;;;10.80;99.90;;;;;;5072512;28;20558;-70
2021/11/01 21:50:11;;;;;;;34.88;23.10;;;10.70;99.90;;;;;;5072338;28;20300;-72
2021/11/01 21:52:38;;;;;;;42.97;27.80;;;10.70;99.90;;;;;;5072562;28;20177;-72
2021/11/01 21:55:15;;;;;;;37.47;25.10;;;10.70;99.90;;;;;;5072401;28;20247;-71
2021/11/01 21:57:52;;;;;;;41.50;27.38;;;10.70;99.90;;;;;;5072043;28;20683;-72
2021/11/01 22:55:41;;;;;;;32.40;21.00;;;10.20;99.90;;;;;;4986452;28;20228;-72
2021/11/01 22:58:23;;;;;;;31.20;21.25;;;10.20;99.90;;;;;;5073628;28;20272;-72
2021/11/01 23:01:57;;;;;;;31.30;20.90;;;10.10;99.90;;;;;;5075421;28;20566;-71
2021/11/01 23:04:20;;;;;;;35.42;21.23;;;10.10;99.90;;;;;;5060365;28;20185;-70
2021/11/01 23:31:36;;;;;;;25.60;19.15;;;9.90;99.90;;;;;;5074651;28;20677;-72
2021/11/01 23:34:11;;;;;;;27.00;19.75;;;9.80;99.90;;;;;;5058274;28;20689;-70
2021/11/01 23:36:38;;;;;;;31.20;19.77;;;9.80;99.90;;;;;;5076199;28;20534;-70
2021/11/01 23:39:09;;;;;;;33.20;20.30;;;9.80;99.90;;;;;;5074831;28;20177;-72
2021/11/01 23:41:47;;;;;;;28.75;19.40;;;9.80;99.90;;;;;;5074717;28;20186;-71
2021/11/01 23:44:17;;;;;;;33.13;20.25;;;9.70;99.90;;;;;;5074287;28;20648;-72
2021/11/01 23:46:47;;;;;;;32.67;21.42;;;9.70;99.90;;;;;;5074742;28;20188;-73
2021/11/01 23:49:16;;;;;;;31.65;21.30;;;9.70;99.90;;;;;;5072262;28;20208;-71
2021/11/01 23:51:49;;;;;;;30.08;20.00;;;9.70;99.90;;;;;;5074481;28;20216;-72
2021/11/01 23:56:44;;;;;;;32.55;21.70;;;9.60;99.90;;;;;;5075958;28;20196;-69
2021/11/01 23:59:15;;;;;;;33.92;22.20;;;9.60;99.90;;;;;;5074292;28;20173;-72
